createdAt,value
2022-08-26T00:00:48.639Z,39.48
2022-08-26T00:03:17.966Z,39.74
2022-08-26T00:05:46.154Z,40.08
2022-08-26T00:08:19.499Z,40.08
2022-08-26T00:10:47.512Z,40.27
2022-08-26T00:13:16.529Z,40.58
2022-08-26T00:15:46.426Z,40.97
2022-08-26T00:18:21.902Z,41.39
2022-08-26T00:20:49.675Z,41.58
2022-08-26T00:23:18.116Z,41.92
2022-08-26T00:25:44.999Z,41.72
2022-08-26T00:28:12.327Z,41.89
2022-08-26T00:30:43.540Z,41.82
2022-08-26T00:33:12.547Z,42.43
2022-08-26T00:35:39.237Z,42.32
2022-08-26T00:38:16.894Z,42.73
2022-08-26T00:40:55.208Z,43.33
2022-08-26T00:43:23.422Z,43.15
2022-08-26T00:45:55.699Z,43.05
2022-08-26T00:48:25.845Z,43.10
2022-08-26T00:51:02.134Z,43.48
2022-08-26T00:53:32.593Z,43.55
2022-08-26T00:56:07.543Z,43.76
2022-08-26T00:58:38.158Z,44.82
2022-08-26T01:01:08.088Z,44.87
2022-08-26T01:03:37.161Z,45.37
2022-08-26T01:06:05.439Z,45.38
2022-08-26T01:08:41.930Z,45.97
2022-08-26T01:11:11.259Z,46.05
2022-08-26T01:13:39.051Z,46.60
2022-08-26T01:16:14.068Z,46.35
2022-08-26T01:18:43.412Z,46.41
2022-08-26T01:21:18.106Z,46.83
2022-08-26T01:23:50.981Z,47.18
2022-08-26T01:26:21.298Z,47.35
2022-08-26T01:28:50.729Z,47.91
2022-08-26T01:31:23.664Z,48.14
2022-08-26T01:33:58.096Z,47.72
2022-08-26T01:36:24.940Z,48.90
2022-08-26T01:38:54.080Z,48.81
2022-08-26T01:41:27.055Z,48.85
2022-08-26T01:44:00.731Z,49.40
2022-08-26T01:46:31.436Z,49.88
2022-08-26T01:49:03.719Z,50.31
2022-08-26T01:51:39.133Z,50.65
2022-08-26T01:54:11.910Z,51.35
2022-08-26T01:56:41.455Z,51.07
2022-08-26T01:59:13.066Z,51.60
2022-08-26T02:01:43.136Z,52.13
2022-08-26T02:04:16.799Z,52.11
2022-08-26T02:06:44.107Z,52.52
2022-08-26T02:09:14.054Z,52.37
2022-08-26T02:11:42.089Z,52.34
2022-08-26T02:14:11.476Z,52.58
2022-08-26T02:16:42.220Z,52.83
2022-08-26T02:19:17.087Z,53.02
2022-08-26T02:21:45.299Z,53.61
2022-08-26T02:24:19.350Z,53.71
2022-08-26T02:26:47.685Z,53.84
2022-08-26T02:29:23.356Z,54.48
2022-08-26T02:31:50.475Z,54.73
2022-08-26T02:34:21.933Z,54.99
2022-08-26T02:36:48.843Z,55.06
2022-08-26T02:39:22.221Z,55.17
2022-08-26T02:41:49.771Z,56.19
2022-08-26T02:44:16.460Z,56.31
2022-08-26T02:46:46.850Z,56.44
2022-08-26T02:49:14.055Z,57.37
2022-08-26T02:51:41.059Z,57.69
2022-08-26T02:54:10.860Z,58.59
2022-08-26T02:56:39.247Z,58.57
2022-08-26T02:59:06.270Z,59.05
2022-08-26T03:01:35.821Z,58.54
2022-08-26T03:04:06.104Z,58.53
2022-08-26T03:06:35.173Z,59.25
2022-08-26T03:09:04.815Z,59.53
2022-08-26T03:11:33.499Z,59.78
2022-08-26T03:14:03.655Z,59.95
2022-08-26T03:16:32.478Z,59.90
2022-08-26T03:19:00.389Z,60.45
2022-08-26T03:21:27.034Z,60.07
2022-08-26T03:23:58.725Z,60.22
2022-08-26T03:26:26.948Z,60.06
2022-08-26T03:28:55.145Z,60.74
2022-08-26T03:31:24.664Z,61.00
2022-08-26T03:33:51.970Z,61.14
2022-08-26T03:36:18.860Z,61.50
2022-08-26T03:38:46.335Z,61.87
2022-08-26T03:41:14.824Z,61.50
2022-08-26T03:43:42.272Z,61.64
2022-08-26T03:46:11.677Z,61.98
2022-08-26T03:48:40.323Z,61.43
2022-08-26T03:51:13.900Z,60.81
2022-08-26T03:53:45.763Z,61.37
2022-08-26T03:56:14.158Z,61.16
2022-08-26T03:58:42.868Z,60.96
2022-08-26T04:01:10.023Z,61.62
2022-08-26T04:03:36.928Z,61.76
2022-08-26T04:06:08.058Z,61.72
2022-08-26T04:08:36.462Z,61.43
2022-08-26T04:11:03.830Z,61.91
2022-08-26T04:13:31.391Z,61.89
2022-08-26T04:15:58.215Z,61.17
2022-08-26T04:18:31.439Z,61.29
2022-08-26T04:21:05.709Z,61.43
2022-08-26T04:23:47.210Z,61.32
2022-08-26T04:26:14.896Z,61.96
2022-08-26T04:28:44.653Z,61.40
2022-08-26T04:31:13.219Z,61.30
2022-08-26T04:33:41.912Z,62.08
2022-08-26T04:36:10.027Z,61.80
2022-08-26T04:38:38.506Z,61.78
2022-08-26T04:41:15.678Z,62.51
2022-08-26T04:43:47.783Z,63.18
2022-08-26T04:46:19.149Z,62.66
2022-08-26T04:48:46.146Z,61.94
2022-08-26T04:51:12.815Z,62.34
2022-08-26T04:53:41.402Z,62.36
2022-08-26T04:56:09.079Z,62.62
2022-08-26T04:58:36.800Z,62.36
2022-08-26T05:01:03.562Z,62.44
2022-08-26T05:03:31.686Z,61.89
2022-08-26T05:05:58.762Z,62.31
2022-08-26T05:08:26.001Z,61.90
2022-08-26T05:10:55.182Z,61.46
2022-08-26T05:13:24.878Z,61.69
2022-08-26T05:16:00.020Z,61.29
2022-08-26T05:18:30.807Z,61.76
2022-08-26T05:20:57.458Z,60.75
2022-08-26T05:23:27.862Z,60.71
2022-08-26T05:25:59.287Z,60.63
2022-08-26T05:28:29.704Z,60.82
2022-08-26T05:30:56.772Z,60.60
2022-08-26T05:33:23.909Z,60.17
2022-08-26T05:35:53.280Z,59.88
2022-08-26T05:38:23.342Z,59.78
2022-08-26T05:40:54.159Z,59.84
2022-08-26T05:43:22.689Z,59.23
2022-08-26T05:45:50.902Z,59.39
2022-08-26T05:48:22.774Z,58.89
2022-08-26T05:50:53.010Z,59.11
2022-08-26T05:53:22.403Z,58.71
2022-08-26T05:55:54.740Z,58.92
2022-08-26T05:58:24.411Z,58.08
2022-08-26T06:00:59.249Z,58.13
2022-08-26T06:03:27.326Z,58.03
2022-08-26T06:05:54.150Z,58.31
2022-08-26T06:08:21.132Z,58.83
2022-08-26T06:10:50.922Z,57.82
2022-08-26T06:13:21.751Z,57.68
2022-08-26T06:15:51.489Z,56.63
2022-08-26T06:18:24.773Z,56.23
2022-08-26T06:20:57.021Z,55.89
2022-08-26T06:23:26.720Z,55.34
2022-08-26T06:25:53.763Z,54.86
2022-08-26T06:28:20.387Z,55.19
2022-08-26T06:30:47.884Z,54.93
2022-08-26T06:33:16.090Z,54.35
2022-08-26T06:35:44.740Z,54.29
2022-08-26T06:38:11.368Z,54.57
2022-08-26T06:40:41.481Z,53.92
2022-08-26T06:43:10.374Z,53.79
2022-08-26T06:45:37.157Z,53.93
2022-08-26T06:48:04.756Z,52.78
2022-08-26T06:50:40.921Z,52.09
2022-08-26T06:53:08.109Z,52.31
2022-08-26T06:55:41.026Z,53.01
2022-08-26T06:58:08.585Z,53.18
2022-08-26T07:00:35.393Z,53.55
2022-08-26T07:03:02.542Z,53.45
2022-08-26T07:05:29.929Z,52.84
2022-08-26T07:08:05.548Z,52.72
2022-08-26T07:10:32.572Z,53.06
2022-08-26T07:12:59.506Z,52.71
2022-08-26T07:15:31.049Z,53.14
2022-08-26T07:18:00.157Z,52.79
2022-08-26T07:20:27.347Z,52.16
2022-08-26T07:22:54.409Z,51.55
2022-08-26T07:25:22.434Z,51.89
2022-08-26T07:27:54.292Z,51.68
2022-08-26T07:30:23.025Z,51.82
2022-08-26T07:32:49.967Z,51.34
2022-08-26T07:35:16.850Z,51.34
2022-08-26T07:37:43.635Z,51.48
2022-08-26T07:40:10.456Z,50.78
2022-08-26T07:42:41.089Z,50.94
2022-08-26T07:45:08.329Z,51.27
2022-08-26T07:47:35.088Z,51.00
2022-08-26T07:50:02.645Z,51.07
2022-08-26T07:53:12.295Z,51.32
2022-08-26T07:55:58.912Z,51.00
2022-08-26T07:58:37.098Z,51.16
2022-08-26T08:05:00.313Z,51.27
2022-08-26T08:07:44.301Z,51.44
2022-08-26T08:10:32.173Z,51.91
2022-08-26T08:16:01.842Z,51.12
2022-08-26T08:21:49.865Z,52.33
2022-08-26T08:24:20.404Z,52.53
2022-08-26T08:26:47.348Z,51.99
2022-08-26T08:29:15.296Z,51.19
2022-08-26T08:31:58.967Z,51.30
2022-08-26T08:34:28.268Z,50.90
2022-08-26T08:36:56.034Z,51.29
2022-08-26T08:39:24.012Z,51.23
2022-08-26T08:45:12.452Z,50.39
2022-08-26T08:47:44.616Z,50.25
2022-08-26T08:50:21.775Z,50.33
2022-08-26T08:52:54.488Z,50.29
2022-08-26T08:55:23.207Z,50.75
2022-08-26T08:58:02.698Z,50.60
2022-08-26T09:00:39.784Z,51.39
2022-08-26T09:03:18.223Z,50.95
2022-08-26T09:05:48.841Z,51.96
2022-08-26T09:08:21.367Z,51.92
2022-08-26T09:10:54.777Z,51.78
2022-08-26T09:35:00.419Z,52.38
2022-08-26T09:40:19.131Z,50.10
2022-08-26T09:43:06.657Z,49.66
2022-08-26T09:45:34.070Z,49.61
2022-08-26T09:48:01.808Z,50.83
2022-08-26T09:50:33.108Z,50.48
2022-08-26T09:53:14.769Z,50.03
2022-08-26T09:59:31.447Z,49.80
2022-08-26T10:02:17.394Z,48.69
2022-08-26T10:08:40.172Z,49.03
2022-08-26T10:11:14.724Z,50.09
2022-08-26T10:13:45.229Z,49.42
2022-08-26T10:16:18.019Z,49.20
2022-08-26T10:18:58.118Z,48.63
2022-08-26T10:21:36.009Z,48.42
2022-08-26T10:24:06.845Z,48.67
2022-08-26T10:26:41.420Z,48.82
2022-08-26T10:29:13.597Z,48.21
2022-08-26T10:31:47.833Z,48.78
2022-08-26T10:34:23.325Z,48.03
2022-08-26T10:37:14.844Z,48.22
2022-08-26T10:39:51.965Z,47.84
2022-08-26T10:42:29.306Z,47.44
2022-08-26T10:45:01.819Z,46.93
2022-08-26T10:47:39.897Z,47.25
2022-08-26T10:50:14.782Z,48.35
2022-08-26T10:53:26.518Z,47.13
2022-08-26T10:56:19.143Z,46.77
2022-08-26T10:58:57.543Z,46.54
2022-08-26T11:01:32.195Z,46.20
2022-08-26T11:04:05.829Z,46.30
2022-08-26T11:06:32.774Z,46.66
2022-08-26T11:09:01.376Z,48.31
2022-08-26T11:11:48.852Z,47.73
2022-08-26T11:14:41.105Z,47.42
2022-08-26T11:17:53.602Z,47.83
2022-08-26T11:20:36.432Z,49.44
2022-08-26T11:23:38.446Z,49.90
2022-08-26T11:26:36.001Z,49.29
2022-08-26T11:29:12.857Z,48.67
2022-08-26T11:32:03.518Z,47.91
2022-08-26T11:34:54.494Z,48.06
2022-08-26T11:38:02.025Z,47.86
2022-08-26T11:40:33.358Z,48.03
2022-08-26T11:43:06.432Z,47.54
2022-08-26T11:45:39.691Z,47.69
2022-08-26T11:48:16.581Z,47.75
2022-08-26T11:50:53.756Z,48.77
2022-08-26T11:53:20.916Z,48.10
2022-08-26T11:55:51.868Z,46.92
2022-08-26T11:58:21.829Z,46.60
2022-08-26T12:00:52.557Z,45.70
2022-08-26T12:03:23.783Z,45.30
2022-08-26T12:05:54.330Z,47.30
2022-08-26T12:08:28.100Z,47.87
2022-08-26T12:11:02.350Z,47.43
2022-08-26T12:13:29.084Z,48.54
2022-08-26T12:16:00.885Z,48.13
2022-08-26T12:18:30.761Z,46.89
2022-08-26T12:21:11.419Z,46.44
2022-08-26T12:23:43.343Z,47.09
2022-08-26T12:26:18.331Z,47.02
2022-08-26T12:28:49.223Z,48.16
2022-08-26T12:31:24.433Z,47.56
2022-08-26T12:33:52.483Z,47.69
2022-08-26T12:36:24.580Z,46.69
2022-08-26T12:38:52.480Z,45.85
2022-08-26T12:41:43.552Z,45.89
2022-08-26T12:44:31.644Z,46.30
2022-08-26T12:47:04.093Z,46.22
2022-08-26T12:49:31.017Z,44.62
2022-08-26T12:51:58.059Z,44.51
2022-08-26T12:54:24.977Z,43.78
2022-08-26T12:56:52.153Z,44.42
2022-08-26T12:59:23.116Z,44.44
2022-08-26T13:01:50.194Z,43.89
2022-08-26T13:04:36.001Z,43.56
2022-08-26T13:07:20.672Z,42.19
2022-08-26T13:12:49.632Z,42.19
2022-08-26T13:15:25.295Z,42.70
2022-08-26T13:20:46.840Z,43.51
2022-08-26T13:23:14.142Z,43.11
2022-08-26T13:25:41.027Z,41.76
2022-08-26T13:28:07.930Z,42.57
2022-08-26T13:30:34.931Z,42.38
2022-08-26T13:33:02.173Z,42.32
2022-08-26T13:35:29.991Z,41.48
2022-08-26T13:37:58.035Z,40.31
2022-08-26T13:40:24.697Z,41.83
2022-08-26T13:42:51.558Z,41.67
2022-08-26T13:45:20.652Z,41.55
2022-08-26T13:47:47.571Z,42.04
2022-08-26T13:50:14.397Z,40.84
2022-08-26T13:52:41.156Z,41.15
2022-08-26T13:55:10.159Z,42.52
2022-08-26T13:57:36.890Z,44.80
2022-08-26T14:00:04.717Z,44.96
2022-08-26T14:02:31.432Z,45.27
2022-08-26T14:04:58.133Z,45.59
2022-08-26T14:07:24.845Z,45.48
2022-08-26T14:09:54.122Z,47.02
2022-08-26T14:12:22.421Z,46.99
2022-08-26T14:14:49.193Z,47.04
2022-08-26T14:17:21.388Z,47.31
2022-08-26T14:19:49.944Z,46.89
2022-08-26T14:22:21.208Z,47.47
2022-08-26T14:24:48.567Z,45.99
2022-08-26T14:27:15.395Z,47.48
2022-08-26T14:29:43.465Z,47.20
2022-08-26T14:32:13.643Z,46.09
2022-08-26T14:34:41.788Z,46.79
2022-08-26T14:37:11.451Z,47.71
2022-08-26T14:39:40.465Z,47.23
2022-08-26T14:42:07.525Z,47.39
2022-08-26T14:44:34.271Z,48.74
2022-08-26T14:47:04.197Z,48.52
2022-08-26T14:49:30.875Z,48.20
2022-08-26T14:51:58.056Z,48.74
2022-08-26T14:54:24.750Z,47.77
2022-08-26T14:56:53.106Z,46.92
2022-08-26T14:59:21.969Z,46.16
2022-08-26T15:01:50.917Z,47.37
2022-08-26T15:04:19.971Z,47.54
2022-08-26T15:06:47.317Z,48.26
2022-08-26T15:09:14.725Z,48.93
2022-08-26T15:11:41.762Z,49.22
2022-08-26T15:14:08.554Z,49.22
2022-08-26T15:16:46.559Z,49.33
2022-08-26T15:19:13.263Z,49.93
2022-08-26T15:21:41.787Z,49.47
2022-08-26T15:24:08.858Z,47.68
2022-08-26T15:26:35.498Z,47.21
2022-08-26T15:29:04.981Z,45.72
2022-08-26T15:31:33.517Z,44.79
2022-08-26T15:34:04.156Z,45.72
2022-08-26T15:36:32.798Z,46.73
2022-08-26T15:39:01.187Z,45.41
2022-08-26T15:41:28.587Z,45.33
2022-08-26T15:43:55.480Z,46.45
2022-08-26T15:46:22.595Z,46.12
2022-08-26T15:48:49.375Z,47.25
2022-08-26T15:51:21.012Z,47.17
2022-08-26T15:53:50.296Z,47.07
2022-08-26T15:56:18.615Z,47.75
2022-08-26T15:58:45.530Z,49.01
2022-08-26T16:01:12.518Z,48.98
2022-08-26T16:03:39.251Z,48.82
2022-08-26T16:06:06.608Z,48.72
2022-08-26T16:08:36.416Z,49.83
2022-08-26T16:11:03.686Z,50.78
2022-08-26T16:13:39.860Z,50.37
2022-08-26T16:16:07.916Z,51.01
2022-08-26T16:18:34.758Z,51.71
2022-08-26T16:21:13.612Z,52.36
2022-08-26T16:23:40.876Z,50.69
2022-08-26T16:26:14.839Z,50.25
2022-08-26T16:28:45.250Z,49.87
2022-08-26T16:31:12.288Z,50.29
2022-08-26T16:33:39.111Z,50.00
2022-08-26T16:36:06.834Z,50.58
2022-08-26T16:38:33.907Z,51.16
2022-08-26T16:41:00.667Z,51.72
2022-08-26T16:43:27.737Z,51.10
2022-08-26T16:45:57.453Z,50.58
2022-08-26T16:48:24.408Z,50.63
2022-08-26T16:50:51.527Z,51.97
2022-08-26T16:53:18.181Z,51.02
2022-08-26T16:55:44.913Z,50.63
2022-08-26T16:58:11.711Z,51.47
2022-08-26T17:00:38.729Z,51.32
2022-08-26T17:03:06.821Z,51.13
2022-08-26T17:05:33.490Z,52.86
2022-08-26T17:08:00.203Z,52.33
2022-08-26T17:10:28.594Z,52.30
2022-08-26T17:12:55.600Z,52.31
2022-08-26T17:15:22.621Z,51.97
2022-08-26T17:17:49.382Z,52.68
2022-08-26T17:20:18.011Z,53.39
2022-08-26T17:22:46.877Z,53.56
2022-08-26T17:25:16.422Z,54.69
2022-08-26T17:27:43.498Z,54.05
2022-08-26T17:30:11.337Z,53.99
2022-08-26T17:32:38.027Z,54.31
2022-08-26T17:35:05.866Z,54.25
2022-08-26T17:37:33.895Z,53.61
2022-08-26T17:40:00.885Z,53.40
2022-08-26T17:42:31.579Z,52.42
2022-08-26T17:44:58.821Z,53.67
2022-08-26T17:47:25.560Z,54.35
2022-08-26T17:49:52.286Z,54.59
2022-08-26T17:52:19.039Z,54.79
2022-08-26T17:54:47.483Z,55.90
2022-08-26T17:57:14.288Z,55.94
2022-08-26T17:59:41.071Z,55.70
2022-08-26T18:02:07.713Z,56.26
2022-08-26T18:04:34.410Z,55.13
2022-08-26T18:07:01.033Z,56.16
2022-08-26T18:09:29.455Z,55.36
2022-08-26T18:11:57.791Z,54.72
2022-08-26T18:14:24.433Z,56.49
2022-08-26T18:16:51.487Z,55.41
2022-08-26T18:19:18.201Z,55.26
2022-08-26T18:21:47.024Z,56.12
2022-08-26T18:24:14.337Z,56.36
2022-08-26T18:26:42.317Z,55.86
2022-08-26T18:29:10.585Z,55.50
2022-08-26T18:31:37.318Z,55.80
2022-08-26T18:34:04.027Z,55.72
2022-08-26T18:36:33.083Z,55.96
2022-08-26T18:39:00.855Z,54.98
2022-08-26T18:41:31.660Z,56.45
2022-08-26T18:44:01.899Z,56.69
2022-08-26T18:46:30.365Z,56.72
2022-08-26T18:49:00.168Z,56.45
2022-08-26T18:51:29.518Z,55.80
2022-08-26T18:53:56.918Z,56.05
2022-08-26T18:56:23.558Z,55.17
2022-08-26T18:58:50.798Z,54.83
2022-08-26T19:01:19.345Z,54.99
2022-08-26T19:03:48.393Z,54.39
2022-08-26T19:06:16.666Z,54.98
2022-08-26T19:08:44.590Z,54.89
2022-08-26T19:11:11.616Z,56.19
2022-08-26T19:13:40.739Z,56.17
2022-08-26T19:16:07.638Z,55.38
2022-08-26T19:18:34.336Z,55.41
2022-08-26T19:21:04.420Z,55.05
2022-08-26T19:23:32.294Z,55.10
2022-08-26T19:26:02.021Z,55.13
2022-08-26T19:28:28.779Z,54.96
2022-08-26T19:30:55.543Z,55.30
2022-08-26T19:33:22.571Z,55.80
2022-08-26T19:35:49.291Z,56.51
2022-08-26T19:38:17.667Z,55.68
2022-08-26T19:40:44.392Z,55.83
2022-08-26T19:43:11.990Z,56.46
2022-08-26T19:45:39.152Z,56.78
2022-08-26T19:48:06.018Z,56.74
2022-08-26T19:50:34.408Z,56.33
2022-08-26T19:53:01.560Z,55.69
2022-08-26T19:55:30.596Z,55.97
2022-08-26T19:57:57.350Z,56.49
2022-08-26T20:00:26.395Z,56.63
2022-08-26T20:02:53.803Z,56.66
2022-08-26T20:05:22.991Z,57.36
2022-08-26T20:07:50.324Z,56.28
2022-08-26T20:10:19.366Z,56.59
2022-08-26T20:12:48.773Z,56.77
2022-08-26T20:15:15.730Z,57.69
2022-08-26T20:17:42.472Z,57.19
2022-08-26T20:20:14.740Z,56.78
2022-08-26T20:22:58.019Z,57.07
2022-08-26T20:25:25.121Z,58.33
2022-08-26T20:27:53.202Z,58.09
2022-08-26T20:30:20.299Z,58.67
2022-08-26T20:32:47.066Z,58.37
2022-08-26T20:35:14.492Z,58.57
2022-08-26T20:37:42.030Z,58.79
2022-08-26T20:40:11.098Z,59.07
2022-08-26T20:42:37.895Z,58.60
2022-08-26T20:45:07.790Z,60.66
2022-08-26T20:47:34.863Z,60.39
2022-08-26T20:50:01.830Z,60.21
2022-08-26T20:52:28.689Z,60.34
2022-08-26T20:54:55.772Z,58.91
2022-08-26T20:57:22.564Z,58.90
2022-08-26T20:59:49.466Z,59.47
2022-08-26T21:02:17.772Z,59.51
2022-08-26T21:04:44.503Z,60.66
2022-08-26T21:07:11.347Z,60.19
2022-08-26T21:09:38.259Z,60.12
2022-08-26T21:12:05.821Z,61.24
2022-08-26T21:14:32.780Z,60.54
2022-08-26T21:16:59.566Z,60.48
2022-08-26T21:19:27.621Z,61.92
2022-08-26T21:21:54.389Z,63.19
2022-08-26T21:24:21.700Z,63.41
2022-08-26T21:26:48.518Z,63.41
2022-08-26T21:29:15.223Z,65.00
2022-08-26T21:31:46.505Z,63.79
2022-08-26T21:34:14.224Z,63.56
2022-08-26T21:36:42.266Z,62.10
2022-08-26T21:39:11.772Z,64.29
2022-08-26T21:41:39.839Z,63.93
2022-08-26T21:44:06.851Z,65.29
2022-08-26T21:46:33.893Z,66.43
2022-08-26T21:49:03.015Z,66.33
2022-08-26T21:51:34.324Z,66.42
2022-08-26T21:54:06.563Z,65.93
2022-08-26T21:56:39.105Z,66.08
2022-08-26T21:59:06.859Z,66.37
2022-08-26T22:01:34.924Z,66.11
2022-08-26T22:04:02.345Z,66.94
2022-08-26T22:06:30.233Z,66.86
2022-08-26T22:08:57.908Z,67.02
2022-08-26T22:11:27.310Z,66.26
2022-08-26T22:13:55.157Z,66.55
2022-08-26T22:16:21.925Z,67.05
2022-08-26T22:18:48.776Z,67.29
2022-08-26T22:21:18.023Z,67.32
2022-08-26T22:23:45.036Z,67.61
2022-08-26T22:26:14.305Z,66.77
2022-08-26T22:28:42.674Z,66.37
2022-08-26T22:31:11.232Z,67.87
2022-08-26T22:33:38.301Z,67.46
2022-08-26T22:36:05.544Z,68.15
2022-08-26T22:38:33.533Z,68.38
2022-08-26T22:41:00.234Z,68.92
2022-08-26T22:43:28.794Z,69.31
2022-08-26T22:45:56.872Z,69.38
2022-08-26T22:48:25.669Z,70.02
2022-08-26T22:50:59.552Z,70.24
2022-08-26T22:53:27.234Z,69.66
2022-08-26T22:55:54.001Z,70.07
2022-08-26T22:58:21.566Z,70.36
2022-08-26T23:00:59.334Z,70.40
2022-08-26T23:03:26.622Z,70.34
2022-08-26T23:05:53.481Z,71.39
2022-08-26T23:08:20.350Z,71.45
2022-08-26T23:10:48.063Z,71.69
2022-08-26T23:13:15.570Z,71.84
2022-08-26T23:15:43.170Z,70.69
2022-08-26T23:18:12.229Z,70.72
2022-08-26T23:20:40.403Z,71.71
2022-08-26T23:23:07.925Z,72.04
2022-08-26T23:25:34.755Z,72.39
2022-08-26T23:28:02.265Z,72.49
2022-08-26T23:30:31.517Z,73.73
2022-08-26T23:32:58.518Z,73.06
2022-08-26T23:35:27.366Z,73.30
2022-08-26T23:37:54.386Z,72.39
2022-08-26T23:40:28.440Z,73.54
2022-08-26T23:42:57.651Z,73.01
2022-08-26T23:45:25.906Z,73.14
2022-08-26T23:47:53.689Z,73.19
2022-08-26T23:50:23.149Z,72.65
2022-08-26T23:52:51.305Z,72.16
2022-08-26T23:55:18.242Z,72.51
2022-08-26T23:57:45.063Z,73.16
